Time;durP1;ratioP1;P1;durP2;ratioP2;P2;SDS_P1;SDS_P2;PMS_P1;PMS_P2;Temp;Humidity;BMP_temperature;BMP_pressure;BME280_temperature;BME280_humidity;BME280_pressure;Samples;Min_cycle;Max_cycle;Signal;HPM_P1;HPM_P2
2023/07/23 00:55:19;;;;;;;;;;;;;;;;;;;;;
2023/07/23 01:07:38;;;;;;;;;;;15.20;99.90;;;14.19;99.87;100690.13;4921880;28;19922;-88
2023/07/23 01:17:37;;;;;;;;;;;15.20;99.90;;;14.16;99.52;100678.78;4818548;29;19924;-88
2023/07/23 01:23:30;;;;;;;;;;;15.20;99.90;;;14.14;100.00;100675.38;5517295;23;19921;-89
2023/07/23 01:29:48;;;;;;;;;;;;;;;14.14;100.00;100680.69;4855059;29;20329;-88
2023/07/23 01:32:49;;;;;;;;;;;15.10;99.90;;;14.16;99.84;100678.78;4842893;29;19931;-88
2023/07/23 01:35:39;;;;;;;;;;;15.10;99.90;;;14.19;99.62;100671.59;4768885;29;20032;-88
2023/07/23 01:38:08;;;;;;;;;;;15.20;99.90;;;14.20;99.48;100683.91;4778801;29;19925;-87
2023/07/23 01:40:49;;;;;;;;;;;15.20;99.90;;;14.20;99.02;100668.03;4911897;23;19976;-87
2023/07/23 01:43:57;;;;;;;;;;;15.20;99.90;;;14.22;99.13;100666.13;4868469;28;19921;-87
2023/07/23 01:46:49;;;;;;;;;;;;;;;;;;;;;
2023/07/23 01:49:15;;;;;;;;;;;15.20;99.90;;;14.24;98.81;100661.59;4826594;29;20492;-84
2023/07/23 01:51:44;;;;;;;;;;;15.30;99.90;;;14.25;98.76;100668.56;4875269;29;19915;-83
2023/07/23 01:54:10;;;;;;;;;;;15.20;99.90;;;14.26;99.50;100683.53;4855131;29;19964;-82
2023/07/23 02:01:46;;;;;;;;;;;15.20;99.90;;;14.16;100.00;100641.72;5224436;22;20603;-84
2023/07/23 02:04:18;;;;;;;;;;;15.20;99.90;;;14.16;100.00;100641.72;4860324;28;19919;-86
2023/07/23 02:07:08;;;;;;;;;;;15.20;99.90;;;14.18;100.00;100651.38;4919484;28;19914;-86
2023/07/23 02:09:37;;;;;;;;;;;15.20;99.90;;;14.16;100.00;100641.72;4949152;28;19980;-86
2023/07/23 02:12:17;;;;;;;;;;;15.20;99.90;;;14.19;100.00;100637.16;4896429;28;20312;-86
2023/07/23 02:45:49;;;;;;;;;;;15.20;99.90;;;14.24;100.00;100624.50;4957862;28;20315;-86
2023/07/23 02:48:17;;;;;;;;;;;15.30;99.90;;;14.21;100.00;100624.69;4893828;28;19922;-86
2023/07/23 02:50:56;;;;;;;;;;;15.20;99.90;;;14.18;100.00;100636.34;4846440;29;19927;-85
2023/07/23 02:56:45;;;;;;;;;;;15.20;99.90;;;14.16;100.00;100624.97;4774895;29;19927;-81
2023/07/23 02:59:10;;;;;;;;;;;15.20;99.90;;;14.16;100.00;100631.13;4800365;29;19928;-82
2023/07/23 03:01:36;;;;;;;;;;;15.20;99.90;;;14.18;100.00;100622.25;4783444;29;20481;-82
2023/07/23 03:04:02;;;;;;;;;;;15.20;99.90;;;14.19;100.00;100618.63;4786896;29;20266;-82
2023/07/23 03:06:37;;;;;;;;;;;15.10;99.90;;;14.19;100.00;100611.56;4804979;29;19940;-84
2023/07/23 03:09:06;;;;;;;;;;;15.20;99.90;;;14.19;100.00;100614.22;4792640;29;19934;-83
2023/07/23 03:11:38;;;;;;;;;;;15.20;99.90;;;14.18;100.00;100619.59;4782974;29;20476;-85
2023/07/23 03:14:06;;;;;;;;;;;15.20;99.90;;;14.18;100.00;100614.31;4808706;29;19931;-85
2023/07/23 03:16:40;;;;;;;;;;;15.20;99.90;;;14.17;100.00;100621.41;4827004;29;19917;-85
2023/07/23 03:19:06;;;;;;;;;;;15.20;99.90;;;14.14;100.00;100617.13;4836418;29;19919;-83
2023/07/23 03:21:34;;;;;;;;;;;15.10;99.90;;;14.11;100.00;100622.63;4841012;29;20007;-82
2023/07/23 03:24:00;;;;;;;;;;;15.10;99.90;;;14.09;100.00;100608.63;4811425;29;19945;-80
2023/07/23 03:26:25;;;;;;;;;;;15.10;99.90;;;14.07;100.00;100620.28;4876199;28;20001;-82
2023/07/23 03:28:56;;;;;;;;;;;15.10;99.90;;;14.05;100.00;100620.34;4882487;28;20031;-84
2023/07/23 03:31:22;;;;;;;;;;;15.10;99.90;;;14.00;100.00;100614.53;4914266;28;19961;-82
2023/07/23 03:33:47;;;;;;;;;;;15.10;99.90;;;14.00;100.00;100609.22;4928473;28;19993;-81
2023/07/23 03:36:13;;;;;;;;;;;15.00;99.90;;;14.01;100.00;100615.38;4901073;28;19914;-82
2023/07/23 03:38:39;;;;;;;;;;;15.40;99.90;;;13.97;100.00;100608.56;4903906;28;20010;-81
2023/07/23 03:41:04;;;;;;;;;;;15.10;99.90;;;13.95;100.00;100613.94;4901524;28;20012;-83
2023/07/23 03:43:30;;;;;;;;;;;15.00;99.90;;;13.94;100.00;100607.81;4900758;28;19968;-82
2023/07/23 03:46:05;;;;;;;;;;;15.00;99.90;;;13.93;100.00;100608.75;4898752;28;20368;-83
2023/07/23 03:48:40;;;;;;;;;;;15.00;99.90;;;13.87;100.00;100603.00;4881839;28;19976;-83
2023/07/23 03:51:06;;;;;;;;;;;15.00;99.90;;;13.90;100.00;100602.78;4887225;28;19929;-82
2023/07/23 03:53:32;;;;;;;;;;;15.00;99.90;;;13.89;100.00;100601.94;4916689;28;19914;-83
2023/07/23 03:55:57;;;;;;;;;;;15.00;99.90;;;13.90;100.00;100608.94;4868391;28;20348;-84
2023/07/23 03:58:25;;;;;;;;;;;15.00;99.90;;;13.86;100.00;100607.41;4899554;23;19922;-83
2023/07/23 04:01:17;;;;;;;;;;;14.90;99.90;;;13.85;100.00;100604.88;4909857;28;19922;-82
2023/07/23 04:03:45;;;;;;;;;;;14.90;99.90;;;13.86;100.00;100617.16;4880765;28;20460;-81
2023/07/23 04:06:19;;;;;;;;;;;14.90;99.90;;;13.82;100.00;100613.00;4898703;28;19989;-81
2023/07/23 04:08:45;;;;;;;;;;;14.90;99.90;;;13.80;100.00;100612.25;4891072;28;19918;-81
2023/07/23 04:11:11;;;;;;;;;;;14.90;99.90;;;13.79;100.00;100611.41;4889208;28;19929;-81
2023/07/23 04:13:36;;;;;;;;;;;14.90;99.90;;;13.79;100.00;100606.09;4902279;28;20338;-80
2023/07/23 04:16:08;;;;;;;;;;;14.90;99.90;;;13.81;100.00;100604.22;4882060;28;19918;-81
2023/07/23 04:18:53;;;;;;;;;;;14.90;99.90;;;13.83;100.00;100594.38;4898173;23;19985;-82
2023/07/23 04:21:19;;;;;;;;;;;14.70;99.90;;;13.85;100.00;100586.38;4878499;28;19922;-81
2023/07/23 04:23:46;;;;;;;;;;;14.90;99.90;;;13.88;100.00;100588.81;4877695;29;19930;-81
2023/07/23 04:26:21;;;;;;;;;;;14.90;99.90;;;13.92;100.00;100592.97;4871483;28;19930;-80
2023/07/23 04:28:47;;;;;;;;;;;14.90;99.90;;;13.96;100.00;100581.25;4888382;28;19985;-81
2023/07/23 04:31:13;;;;;;;;;;;14.90;99.90;;;13.94;100.00;100575.19;4869573;29;19942;-80
2023/07/23 04:33:46;;;;;;;;;;;14.90;99.90;;;14.05;100.00;100579.81;4864874;28;19930;-79
2023/07/23 04:36:14;;;;;;;;;;;15.00;99.90;;;14.10;100.00;100581.22;4837734;29;20401;-80
2023/07/23 04:38:41;;;;;;;;;;;15.00;99.90;;;14.16;100.00;100556.97;4877419;23;19973;-80
2023/07/23 04:41:15;;;;;;;;;;;15.10;99.90;;;14.24;100.00;100563.59;4897265;28;20317;-80
2023/07/23 04:43:41;;;;;;;;;;;15.10;99.90;;;14.28;100.00;100559.81;4955826;28;20048;-79
2023/07/23 04:46:07;;;;;;;;;;;15.20;99.90;;;14.39;100.00;100557.31;4913859;28;19937;-79
2023/07/23 04:48:41;;;;;;;;;;;15.30;99.90;;;14.43;100.00;100558.81;4862460;28;19928;-80
2023/07/23 04:51:08;;;;;;;;;;;15.30;99.90;;;14.50;100.00;100553.97;4875006;28;19922;-79
2023/07/23 04:53:34;;;;;;;;;;;15.40;99.90;;;14.55;100.00;100562.47;4859901;28;20005;-80
2023/07/23 04:56:02;;;;;;;;;;;15.40;99.90;;;14.62;100.00;100562.91;4876136;28;19918;-80
2023/07/23 04:58:34;;;;;;;;;;;15.50;99.90;;;14.72;100.00;100561.34;4879551;28;20402;-80
2023/07/23 05:01:15;;;;;;;;;;;15.60;99.90;;;14.83;100.00;100565.94;4930721;28;19922;-79
2023/07/23 05:03:41;;;;;;;;;;;15.60;99.90;;;14.87;100.00;100554.19;4881131;29;19916;-79
2023/07/23 05:06:07;;;;;;;;;;;15.70;99.90;;;14.92;100.00;100571.50;4874109;28;20936;-79
2023/07/23 05:08:34;;;;;;;;;;;15.80;99.90;;;14.92;100.00;100560.88;4894235;29;19958;-79
2023/07/23 05:11:06;;;;;;;;;;;15.80;99.90;;;14.97;100.00;100555.28;4883376;28;19922;-79
2023/07/23 05:13:33;;;;;;;;;;;15.80;99.90;;;15.06;100.00;100557.28;4908455;28;19910;-79
2023/07/23 05:16:00;;;;;;;;;;;15.90;99.90;;;15.31;100.00;100572.38;4898229;28;19918;-79
2023/07/23 05:18:26;;;;;;;;;;;16.10;99.90;;;15.56;100.00;100565.38;4849020;29;19915;-79
2023/07/23 05:20:56;;;;;;;;;;;16.10;99.90;;;15.78;100.00;100570.88;4874053;28;19918;-80
2023/07/23 05:23:22;;;;;;;;;;;16.30;99.90;;;15.91;100.00;100570.00;4909870;29;19922;-79
2023/07/23 05:25:48;;;;;;;;;;;16.50;99.90;;;16.02;100.00;100570.09;4852909;29;19962;-79
2023/07/23 05:28:14;;;;;;;;;;;16.60;99.90;;;16.05;100.00;100556.59;4898945;28;19973;-79
2023/07/23 05:30:40;;;;;;;;;;;16.70;99.90;;;16.06;99.90;100560.94;4900134;28;20542;-79
2023/07/23 05:33:06;;;;;;;;;;;16.80;99.90;;;16.09;98.97;100555.44;4923831;28;19968;-78
2023/07/23 05:35:39;;;;;;;;;;;16.80;99.90;;;16.08;98.47;100544.91;4883282;28;19969;-78
2023/07/23 05:38:05;;;;;;;;;;;16.80;99.90;;;16.03;98.29;100545.25;4903609;28;19982;-78
2023/07/23 05:40:35;;;;;;;;;;;16.90;99.90;;;15.99;97.69;100552.56;4910555;28;20043;-78
2023/07/23 05:43:06;;;;;;;;;;;16.80;99.90;;;15.92;98.39;100548.66;4913236;28;19922;-78
2023/07/23 05:45:32;;;;;;;;;;;16.80;99.90;;;15.89;98.22;100548.03;4937730;28;19928;-78
2023/07/23 05:47:58;;;;;;;;;;;16.80;99.90;;;15.89;98.61;100545.38;4906765;28;19922;-78
2023/07/23 05:50:23;;;;;;;;;;;16.80;99.90;;;15.85;98.88;100555.34;4926784;28;20326;-78
2023/07/23 05:52:49;;;;;;;;;;;16.80;99.90;;;15.83;99.85;100548.47;4885947;28;20385;-77
2023/07/23 05:55:22;;;;;;;;;;;16.80;99.90;;;15.83;99.77;100548.47;4895749;28;19922;-78
2023/07/23 05:57:47;;;;;;;;;;;16.70;99.90;;;15.87;100.00;100547.28;4926165;28;19910;-78
2023/07/23 06:00:13;;;;;;;;;;;16.70;99.90;;;15.97;100.00;100548.34;4903896;28;20386;-78
2023/07/23 06:02:39;;;;;;;;;;;16.80;99.90;;;16.13;99.28;100548.94;4902216;28;19922;-79
2023/07/23 06:05:05;;;;;;;;;;;16.80;99.90;;;16.25;98.19;100541.03;4886283;28;19986;-79
2023/07/23 06:07:36;;;;;;;;;;;16.90;99.90;;;16.55;97.48;100543.22;4896724;28;21458;-79
2023/07/23 06:10:02;;;;;;;;;;;17.10;99.90;;;17.30;98.13;100545.50;4901478;28;19926;-78
2023/07/23 06:12:28;;;;;;;;;;;17.50;99.90;;;17.63;95.34;100535.84;4898101;29;19915;-78
2023/07/23 06:14:53;;;;;;;;;;;17.80;99.90;;;17.82;92.19;100549.41;4902260;28;19926;-79
2023/07/23 06:17:19;;;;;;;;;;;18.10;99.90;;;17.76;90.10;100549.88;4896919;28;19918;-78
2023/07/23 06:19:45;;;;;;;;;;;18.30;99.90;;;17.74;88.70;100538.50;4897226;28;19918;-78
2023/07/23 06:22:13;;;;;;;;;;;18.30;99.90;;;18.21;87.85;100547.16;4926957;28;19945;-78
2023/07/23 06:24:42;;;;;;;;;;;18.50;99.90;;;18.41;86.03;100547.34;4900984;28;19919;-78
2023/07/23 06:27:07;;;;;;;;;;;18.70;99.90;;;18.73;84.31;100544.69;4860864;28;19959;-79
2023/07/23 06:29:33;;;;;;;;;;;19.00;99.90;;;19.15;83.82;100539.38;4908669;28;20443;-78
2023/07/23 06:31:59;;;;;;;;;;;19.20;99.90;;;19.55;81.17;100543.09;4881905;28;20576;-78
2023/07/23 06:34:24;;;;;;;;;;;19.50;99.90;;;19.92;81.44;100547.91;4930102;28;19941;-78
2023/07/23 06:36:50;;;;;;;;;;;20.20;99.90;;;20.02;79.11;100546.09;4889717;29;19926;-78
2023/07/23 06:39:23;;;;;;;;;;;20.10;99.90;;;20.98;77.54;100544.47;4879331;28;19918;-78
2023/07/23 06:41:49;;;;;;;;;;;20.60;99.90;;;21.48;73.27;100546.91;4917222;28;20371;-78
2023/07/23 06:44:14;;;;;;;;;;;21.10;99.90;;;21.28;72.37;100537.22;4884531;28;19921;-77
2023/07/23 06:46:40;;;;;;;;;;;21.40;99.90;;;21.27;72.46;100536.41;4910743;28;19984;-78
2023/07/23 06:49:06;;;;;;;;;;;21.50;99.90;;;21.18;73.51;100536.41;4916180;28;19926;-78
2023/07/23 06:51:36;;;;;;;;;;;21.50;99.90;;;21.31;72.96;100539.59;4924593;28;19914;-78
2023/07/23 06:54:02;;;;;;;;;;;21.50;99.90;;;21.46;71.94;100538.19;4902198;28;19917;-78
2023/07/23 06:56:28;;;;;;;;;;;21.60;99.90;;;21.50;71.16;100528.03;4884481;28;19934;-77
2023/07/23 06:58:53;;;;;;;;;;;22.50;99.90;;;21.70;71.13;100534.13;4884940;28;19922;-78
2023/07/23 07:01:21;;;;;;;;;;;21.80;99.90;;;21.97;71.12;100535.13;4891908;28;19914;-77
2023/07/23 07:03:46;;;;;;;;;;;22.00;99.90;;;22.05;69.83;100548.63;4910930;28;19988;-78
2023/07/23 07:06:19;;;;;;;;;;;22.20;99.90;;;21.57;69.39;100533.63;4911642;28;20392;-77
2023/07/23 07:08:45;;;;;;;;;;;22.10;99.90;;;21.57;70.36;100537.16;4860523;29;19926;-78
2023/07/23 07:11:11;;;;;;;;;;;22.00;99.90;;;21.53;70.24;100527.72;4913054;28;19929;-78
2023/07/23 07:13:37;;;;;;;;;;;21.90;99.90;;;21.87;70.10;100540.53;4908465;28;20281;-77
2023/07/23 07:16:08;;;;;;;;;;;22.10;99.90;;;22.00;70.16;100529.47;4893545;28;19977;-77
2023/07/23 07:18:34;;;;;;;;;;;22.20;99.90;;;22.32;69.74;100534.38;4916445;28;19945;-77
2023/07/23 07:21:00;;;;;;;;;;;22.30;99.90;;;22.65;70.21;100532.81;4905456;28;19927;-77
2023/07/23 07:23:27;;;;;;;;;;;22.60;99.90;;;22.99;69.42;100534.78;4905011;28;20326;-77
2023/07/23 07:26:00;;;;;;;;;;;22.80;99.90;;;24.42;66.74;100540.47;4913145;28;19915;-77
2023/07/23 07:28:27;;;;;;;;;;;23.40;99.90;;;25.60;62.88;100554.41;4886068;28;19922;-77
2023/07/23 07:30:58;;;;;;;;;;;24.40;99.90;;;25.24;61.50;100535.97;4909821;28;20016;-78
2023/07/23 07:33:29;;;;;;;;;;;25.00;99.90;;;24.70;62.21;100533.78;4912543;28;19921;-78
2023/07/23 07:35:58;;;;;;;;;;;24.70;99.90;;;24.08;62.86;100531.50;4932169;28;20374;-77
2023/07/23 07:38:25;;;;;;;;;;;24.70;99.90;;;23.47;65.13;100529.88;4889556;29;19973;-77
2023/07/23 07:40:56;;;;;;;;;;;24.20;99.90;;;22.85;65.71;100532.63;4881365;28;19970;-78
2023/07/23 07:43:21;;;;;;;;;;;23.90;99.90;;;22.41;65.89;100527.25;4878540;28;19914;-77
2023/07/23 07:45:48;;;;;;;;;;;23.40;99.90;;;22.12;66.87;100523.75;4944620;28;19922;-77
2023/07/23 07:48:14;;;;;;;;;;;23.10;99.90;;;21.65;68.23;100515.00;4910332;28;19929;-78
2023/07/23 07:50:40;;;;;;;;;;;22.70;99.90;;;21.31;69.10;100518.19;4866042;29;20532;-77
2023/07/23 07:53:05;;;;;;;;;;;22.40;99.90;;;20.79;70.09;100510.56;4884778;28;19918;-77
2023/07/23 07:55:38;;;;;;;;;;;22.00;99.90;;;20.59;71.94;100512.41;4876617;29;20665;-78
2023/07/23 07:58:04;;;;;;;;;;;21.70;99.90;;;20.33;72.49;100516.59;4883582;28;19921;-77
2023/07/23 08:00:30;;;;;;;;;;;21.40;99.90;;;20.00;73.33;100513.31;4900300;28;19920;-77
2023/07/23 08:02:56;;;;;;;;;;;21.00;99.90;;;19.77;74.46;100510.88;4937421;28;19926;-77
2023/07/23 08:05:23;;;;;;;;;;;20.80;99.90;;;19.65;75.51;100511.91;4857083;29;19974;-77
2023/07/23 08:07:51;;;;;;;;;;;20.60;99.90;;;19.63;77.02;100519.22;4885865;29;19986;-77
2023/07/23 08:10:17;;;;;;;;;;;20.60;99.90;;;19.49;76.20;100512.44;4886217;29;20344;-77
2023/07/23 08:12:43;;;;;;;;;;;20.50;99.90;;;19.32;76.81;100507.72;4898526;29;20664;-77
2023/07/23 08:15:09;;;;;;;;;;;20.40;99.90;;;19.16;77.31;100510.88;4925741;28;19997;-77
2023/07/23 08:17:35;;;;;;;;;;;20.20;99.90;;;19.08;78.45;100503.53;4927709;29;20164;-76
2023/07/23 08:20:03;;;;;;;;;;;20.10;99.90;;;19.12;79.13;100504.94;4936459;28;19926;-77
2023/07/23 08:22:32;;;;;;;;;;;20.10;99.90;;;19.25;79.06;100502.91;4919561;28;19977;-77
2023/07/23 08:24:58;;;;;;;;;;;20.10;99.90;;;19.35;78.06;100513.66;4907204;29;19938;-76
2023/07/23 08:27:25;;;;;;;;;;;20.10;99.90;;;19.18;77.41;100506.22;4907758;28;19919;-77
2023/07/23 08:29:50;;;;;;;;;;;20.10;99.90;;;19.03;77.99;100511.94;4878145;28;19929;-76
2023/07/23 08:32:17;;;;;;;;;;;20.00;99.90;;;18.87;78.70;100511.53;4911824;28;19926;-77
2023/07/23 08:34:46;;;;;;;;;;;19.90;99.90;;;18.79;79.34;100508.66;4931610;28;20343;-77
2023/07/23 08:37:12;;;;;;;;;;;19.80;99.90;;;18.73;80.45;100511.84;4900247;28;20730;-77
2023/07/23 08:39:38;;;;;;;;;;;19.70;99.90;;;18.68;80.76;100512.19;4935171;28;19926;-77
2023/07/23 08:42:15;;;;;;;;;;;19.60;99.90;;;18.64;81.01;100510.78;4925956;28;19918;-77
2023/07/23 08:45:14;;;;;;;;;;;19.50;99.90;;;18.62;80.97;100504.75;4915438;28;20004;-77
2023/07/23 08:47:45;;;;;;;;;;;19.50;99.90;;;18.62;81.52;100510.91;4939575;28;19922;-77
2023/07/23 08:50:18;;;;;;;;;;;19.50;99.90;;;18.66;81.83;100508.84;4908346;28;19937;-78
2023/07/23 08:52:45;;;;;;;;;;;19.50;99.90;;;18.78;82.02;100507.81;4920619;28;19914;-79
2023/07/23 08:55:11;;;;;;;;;;;19.50;99.90;;;18.90;82.79;100503.28;4872209;28;19961;-79
2023/07/23 08:57:37;;;;;;;;;;;19.60;99.90;;;18.97;82.20;100508.94;4912944;28;20574;-79
2023/07/23 09:00:03;;;;;;;;;;;19.60;99.90;;;19.04;81.75;100505.59;4888144;28;19922;-79
2023/07/23 09:02:32;;;;;;;;;;;19.70;99.90;;;19.08;81.41;100506.19;4867980;28;19925;-79
2023/07/23 09:04:58;;;;;;;;;;;19.70;99.90;;;18.99;80.94;100501.66;4912070;28;19930;-78
2023/07/23 09:07:24;;;;;;;;;;;19.70;99.90;;;19.02;81.28;100501.38;4897794;28;19918;-79
2023/07/23 09:09:50;;;;;;;;;;;19.80;99.90;;;19.00;81.68;100493.50;4910529;28;19923;-78
2023/07/23 09:12:16;;;;;;;;;;;19.80;99.90;;;19.04;81.61;100504.75;4894929;28;20376;-80
2023/07/23 09:14:52;;;;;;;;;;;19.70;99.90;;;19.05;81.18;100493.97;4929065;28;19963;-79
2023/07/23 09:20:13;;;;;;;;;;;19.80;99.90;;;19.32;81.14;100499.72;4850244;29;20010;-80
2023/07/23 09:22:39;;;;;;;;;;;20.00;99.90;;;19.43;80.67;100497.78;4839160;29;19932;-80
2023/07/23 09:25:05;;;;;;;;;;;20.00;99.90;;;19.57;79.68;100493.06;4862338;29;20014;-81
2023/07/23 09:27:40;;;;;;;;;;;20.10;99.90;;;19.71;80.22;100494.56;4861965;29;19986;-82
2023/07/23 09:30:06;;;;;;;;;;;20.30;99.90;;;19.83;81.06;100488.97;4849353;29;19924;-83
2023/07/23 09:32:40;;;;;;;;;;;20.30;99.90;;;19.79;79.44;100492.88;4851911;29;19971;-81
2023/07/23 09:35:07;;;;;;;;;;;20.40;99.90;;;19.84;78.79;100490.63;4863704;29;19919;-82
2023/07/23 09:37:33;;;;;;;;;;;20.40;99.90;;;19.92;79.13;100497.13;4848139;29;20389;-82
2023/07/23 09:40:01;;;;;;;;;;;20.40;99.90;;;20.12;78.74;100492.66;4848553;29;19919;-82
2023/07/23 09:42:39;;;;;;;;;;;20.50;99.90;;;20.28;78.49;100492.97;4851989;29;19935;-82
2023/07/23 09:45:08;;;;;;;;;;;20.70;99.90;;;20.34;77.33;100496.91;4881008;29;20291;-80
2023/07/23 09:47:39;;;;;;;;;;;20.80;99.90;;;20.29;77.02;100495.47;4871029;29;19927;-81
2023/07/23 09:50:13;;;;;;;;;;;20.80;99.90;;;20.32;77.78;100489.00;4847312;29;20377;-81
2023/07/23 09:52:50;;;;;;;;;;;20.90;99.90;;;20.34;79.19;100496.91;4862421;29;19924;-81
2023/07/23 09:55:25;;;;;;;;;;;20.90;99.90;;;20.38;79.36;100492.97;4831699;29;20458;-82
2023/07/23 09:57:53;;;;;;;;;;;20.90;99.90;;;20.46;80.10;100501.13;4886378;28;19918;-81
2023/07/23 10:00:58;;;;;;;;;;;21.00;99.90;;;20.39;79.27;100498.19;4942087;28;19922;-81
2023/07/23 10:03:45;;;;;;;;;;;21.00;99.90;;;20.33;79.54;100493.38;4920387;28;20051;-82
2023/07/23 10:06:21;;;;;;;;;;;20.90;99.90;;;20.14;78.71;100491.53;4928189;28;19996;-82
2023/07/23 10:08:48;;;;;;;;;;;20.80;99.90;;;20.04;80.60;100485.31;4985187;23;19929;-82
2023/07/23 10:11:25;;;;;;;;;;;20.70;99.90;;;20.05;81.64;100476.34;4927588;28;19928;-81
2023/07/23 10:14:07;;;;;;;;;;;20.70;99.90;;;19.94;84.10;100476.47;4873579;28;19934;-81
2023/07/23 10:16:48;;;;;;;;;;;20.60;99.90;;;19.98;83.66;100485.91;4897903;28;19914;-81
2023/07/23 10:19:39;;;;;;;;;;;20.60;99.90;;;19.97;82.29;100484.19;4890903;28;19914;-82
2023/07/23 10:22:08;;;;;;;;;;;20.60;99.90;;;20.01;81.85;100477.59;4937779;28;19922;-81
2023/07/23 10:24:40;;;;;;;;;;;20.70;99.90;;;20.01;83.05;100477.59;4950799;28;20376;-81
2023/07/23 10:27:16;;;;;;;;;;;20.70;99.90;;;20.11;81.13;100478.47;4929425;28;21611;-80
2023/07/23 10:30:20;;;;;;;;;;;20.70;99.90;;;20.16;82.83;100472.69;4934323;28;19926;-82
2023/07/23 10:33:10;;;;;;;;;;;20.80;99.90;;;20.21;84.25;100468.59;4928603;28;20264;-81
2023/07/23 10:36:02;;;;;;;;;;;20.80;99.90;;;20.14;83.75;100464.81;4885325;28;20418;-81
2023/07/23 10:38:38;;;;;;;;;;;20.90;99.90;;;20.17;83.73;100458.31;4953552;28;19918;-81
2023/07/23 10:41:04;;;;;;;;;;;20.90;99.90;;;20.20;83.65;100458.91;4948389;28;19966;-81
2023/07/23 10:43:43;;;;;;;;;;;20.80;99.90;;;20.26;80.09;100458.34;4947092;28;20008;-80
2023/07/23 10:46:16;;;;;;;;;;;20.90;99.90;;;20.25;82.05;100453.13;4946960;28;20372;-81
2023/07/23 10:48:49;;;;;;;;;;;20.90;99.90;;;20.40;80.97;100459.75;4899069;28;20013;-84
2023/07/23 10:51:30;;;;;;;;;;;20.90;99.90;;;20.61;81.86;100462.28;4923159;28;20355;-83
2023/07/23 10:54:04;;;;;;;;;;;21.10;99.90;;;20.76;81.61;100469.88;4911706;28;19929;-83
2023/07/23 10:56:39;;;;;;;;;;;21.20;99.90;;;20.85;82.87;100471.69;4922611;28;19971;-83
2023/07/23 10:59:13;;;;;;;;;;;21.40;99.90;;;20.92;80.58;100470.13;4926427;28;19922;-83
2023/07/23 11:01:59;;;;;;;;;;;21.40;99.90;;;20.94;78.37;100462.78;4938528;28;20004;-83
2023/07/23 11:04:26;;;;;;;;;;;21.50;99.90;;;20.45;79.37;100451.28;4913426;28;20005;-82
2023/07/23 11:07:08;;;;;;;;;;;21.30;99.90;;;20.49;80.88;100447.34;4925358;28;19919;-83
2023/07/23 11:09:35;;;;;;;;;;;21.30;99.90;;;20.65;81.66;100455.66;4877646;28;1148061;-83
2023/07/23 11:12:06;;;;;;;;;;;21.30;99.90;;;20.67;80.98;100445.69;4898802;28;19958;-83
2023/07/23 11:14:35;;;;;;;;;;;21.30;99.90;;;20.74;81.40;100455.81;4932985;28;19989;-83
2023/07/23 11:17:03;;;;;;;;;;;21.30;99.90;;;20.74;82.16;100453.13;4942231;28;19925;-82
2023/07/23 11:19:31;;;;;;;;;;;21.30;99.90;;;20.86;79.75;100454.63;4910316;28;20292;-79
2023/07/23 11:22:02;;;;;;;;;;;21.40;99.90;;;20.93;79.15;100461.13;4953920;28;19910;-81
2023/07/23 11:24:31;;;;;;;;;;;21.50;99.90;;;20.95;78.05;100456.47;4912235;28;20021;-80
2023/07/23 11:27:03;;;;;;;;;;;21.50;99.90;;;20.97;78.78;100451.81;4929178;28;20155;-80
2023/07/23 11:29:32;;;;;;;;;;;21.50;99.90;;;20.89;79.48;100449.00;4904632;28;19918;-79
2023/07/23 11:32:06;;;;;;;;;;;21.50;99.90;;;20.83;78.94;100436.19;4961604;28;20395;-78
2023/07/23 11:34:33;;;;;;;;;;;21.50;99.90;;;20.83;80.31;100431.69;4924594;28;19914;-81
2023/07/23 11:37:02;;;;;;;;;;;21.50;99.90;;;20.78;79.31;100433.13;4905380;28;19926;-80
2023/07/23 11:39:29;;;;;;;;;;;21.50;99.90;;;20.86;80.08;100438.56;4921330;28;19929;-81
2023/07/23 11:42:18;;;;;;;;;;;21.40;99.90;;;20.82;80.53;100423.78;4941856;28;19920;-81
2023/07/23 11:45:03;;;;;;;;;;;21.40;99.90;;;21.06;80.88;100420.66;4925310;28;19922;-80
2023/07/23 11:47:29;;;;;;;;;;;21.50;99.90;;;21.14;79.75;100428.75;4963601;28;20111;-81
2023/07/23 11:50:03;;;;;;;;;;;21.60;99.90;;;21.28;78.87;100432.81;4927467;28;19921;-81
2023/07/23 11:52:38;;;;;;;;;;;21.70;99.90;;;21.23;78.72;100430.56;4942112;28;19925;-79
2023/07/23 11:55:21;;;;;;;;;;;21.80;99.90;;;21.25;78.98;100422.38;4935206;28;20374;-81
2023/07/23 11:58:05;;;;;;;;;;;21.80;99.90;;;21.36;79.31;100416.84;4893349;28;19925;-79
2023/07/23 12:00:45;;;;;;;;;;;21.90;99.90;;;21.25;78.43;100411.66;4939168;28;19942;-80
2023/07/23 12:03:12;;;;;;;;;;;21.90;99.90;;;20.97;77.91;100410.78;4931737;28;20347;-80
2023/07/23 12:05:45;;;;;;;;;;;21.80;99.90;;;21.22;78.06;100410.13;4920804;28;19929;-81
2023/07/23 12:08:12;;;;;;;;;;;21.90;99.90;;;21.08;76.81;100405.28;4905569;29;19918;-80
2023/07/23 12:10:42;;;;;;;;;;;21.80;99.90;;;21.18;76.10;100403.38;4931980;28;20455;-80
2023/07/23 12:13:14;;;;;;;;;;;21.80;99.90;;;21.28;76.95;100400.66;4942624;28;20394;-81
2023/07/23 12:15:57;;;;;;;;;;;21.80;99.90;;;21.00;75.26;100397.13;4938001;28;19918;-80
2023/07/23 12:18:27;;;;;;;;;;;21.80;99.90;;;21.16;75.60;100408.03;4939224;28;19914;-80
2023/07/23 12:21:00;;;;;;;;;;;21.70;99.90;;;21.31;75.51;100403.03;4865132;28;20009;-80
2023/07/23 12:23:26;;;;;;;;;;;21.80;99.90;;;21.34;76.64;100409.91;4954779;28;20022;-81
2023/07/23 12:28:29;;;;;;;10.93;6.13;;;22.00;99.90;;;21.48;75.19;100402.25;5103241;27;20424;-81
2023/07/23 12:30:56;;;;;;;8.40;5.50;;;22.10;99.90;;;21.53;74.73;100407.16;5058120;28;20520;-82
2023/07/23 12:33:23;;;;;;;10.95;5.72;;;22.10;99.90;;;21.57;75.01;100391.66;5037782;28;20463;-82
2023/07/23 12:35:58;;;;;;;7.70;5.30;;;22.10;99.90;;;21.59;75.55;100386.97;5056989;28;20048;-83
2023/07/23 12:38:28;;;;;;;8.60;5.43;;;22.10;99.90;;;21.35;75.05;100384.84;5048166;28;20036;-82
2023/07/23 12:40:59;;;;;;;11.60;6.20;;;22.10;99.90;;;21.37;75.30;100375.66;5030470;28;20102;-81
2023/07/23 12:43:25;;;;;;;11.52;5.68;;;21.90;99.90;;;21.08;76.11;100375.84;5051397;28;20044;-81
2023/07/23 12:45:52;;;;;;;10.00;5.75;;;21.70;99.90;;;20.84;76.44;100369.16;5014737;28;20060;-81
2023/07/23 12:48:26;;;;;;;11.77;5.88;;;21.60;99.90;;;20.80;77.36;100369.59;5006115;28;20040;-81
2023/07/23 12:50:57;;;;;;;11.98;5.85;;;21.60;99.90;;;20.78;78.65;100366.25;5036938;28;20034;-81
2023/07/23 12:53:32;;;;;;;18.73;6.60;;;21.50;99.90;;;20.66;78.88;100379.78;5054534;28;20040;-82
2023/07/23 12:55:59;;;;;;;15.23;5.80;;;21.30;99.90;;;20.44;80.15;100356.03;5056283;28;20036;-81
2023/07/23 12:58:25;;;;;;;11.63;5.70;;;21.30;99.90;;;20.52;80.65;100358.81;5037518;28;20107;-82
2023/07/23 13:01:00;;;;;;;8.98;5.43;;;21.30;99.90;;;20.76;79.29;100365.53;5001477;28;20102;-81
2023/07/23 13:03:29;;;;;;;13.13;6.07;;;21.30;99.90;;;20.69;77.26;100352.75;5031969;28;20044;-83
2023/07/23 13:06:03;;;;;;;12.63;6.28;;;21.40;99.90;;;20.92;77.46;100365.75;5032194;28;20041;-82
2023/07/23 13:08:29;;;;;;;11.40;5.72;;;21.60;99.90;;;21.10;78.44;100357.75;5017633;28;20574;-81
2023/07/23 13:10:55;;;;;;;10.27;6.10;;;21.60;99.90;;;21.04;76.93;100359.22;5000255;28;20113;-82
2023/07/23 13:13:28;;;;;;;12.98;5.78;;;21.50;99.90;;;20.83;76.86;100337.19;4998738;28;20035;-82
2023/07/23 13:15:58;;;;;;;9.50;5.20;;;21.60;99.90;;;20.92;76.07;100336.31;5003372;28;20037;-81
2023/07/23 13:18:33;;;;;;;8.40;5.18;;;21.60;99.90;;;21.06;74.65;100332.31;5034657;28;20033;-82
2023/07/23 13:21:05;;;;;;;8.82;5.50;;;21.70;99.90;;;21.30;73.60;100339.78;5019942;28;20101;-80
2023/07/23 13:23:38;;;;;;;9.38;5.57;;;21.90;99.90;;;21.18;75.16;100336.44;5008110;28;20096;-80